Time;durP1;ratioP1;P1;durP2;ratioP2;P2;SDS_P1;SDS_P2;PMS_P1;PMS_P2;Temp;Humidity;BMP_temperature;BMP_pressure;BME280_temperature;BME280_humidity;BME280_pressure;Samples;Min_cycle;Max_cycle;Signal;HPM_P1;HPM_P2
2021/08/15 00:03:41;;;;;;;19.67;10.43;;;21.00;99.90;;;;;;20920749;28;20094;-72
2021/08/15 00:13:43;;;;;;;26.13;10.65;;;20.70;99.90;;;;;;20914499;28;20064;-72
2021/08/15 00:23:44;;;;;;;20.50;10.83;;;20.70;99.90;;;;;;20912946;28;20033;-72
2021/08/15 00:33:44;;;;;;;21.90;10.67;;;20.60;99.90;;;;;;20913809;28;20031;-72
2021/08/15 00:43:45;;;;;;;23.03;10.93;;;20.20;99.90;;;;;;20913503;28;20091;-72
2021/08/15 00:53:47;;;;;;;20.57;10.73;;;20.10;99.90;;;;;;20912802;28;20037;-72
2021/08/15 01:03:47;;;;;;;28.95;10.63;;;19.80;99.90;;;;;;20912108;28;20507;-72
2021/08/15 01:13:48;;;;;;;22.40;10.67;;;20.20;99.90;;;;;;20910708;28;20086;-72
2021/08/15 01:23:49;;;;;;;21.63;11.13;;;20.00;99.90;;;;;;20910032;28;20029;-72
2021/08/15 01:33:51;;;;;;;25.57;10.03;;;20.10;99.90;;;;;;20908021;28;20064;-72
2021/08/15 01:43:57;;;;;;;20.08;10.05;;;20.20;99.90;;;;;;20907370;28;20032;-72
2021/08/15 01:54:02;;;;;;;31.10;10.65;;;20.00;99.90;;;;;;20907742;28;20029;-72
2021/08/15 02:04:03;;;;;;;18.40;9.77;;;19.70;99.90;;;;;;20907428;28;20044;-72
2021/08/15 02:14:04;;;;;;;21.03;9.73;;;19.80;99.90;;;;;;20907107;28;20484;-72
2021/08/15 02:24:04;;;;;;;21.50;10.60;;;19.50;99.90;;;;;;20906801;28;20060;-72
2021/08/15 02:34:05;;;;;;;20.43;10.70;;;19.50;99.90;;;;;;20905337;28;20032;-72
2021/08/15 02:44:06;;;;;;;26.83;12.43;;;19.40;99.90;;;;;;20909934;28;20052;-72
2021/08/15 02:54:07;;;;;;;18.80;10.87;;;19.30;99.90;;;;;;20921318;28;20086;-72
2021/08/15 03:04:08;;;;;;;17.20;11.30;;;19.20;99.90;;;;;;20888368;28;20037;-72
2021/08/15 03:14:09;;;;;;;29.13;12.43;;;19.10;99.90;;;;;;20901882;28;20024;-72
2021/08/15 03:24:10;;;;;;;;;;;19.10;99.90;;;;;;20899891;28;20040;-72
2021/08/15 03:34:12;;;;;;;19.20;12.00;;;19.30;99.90;;;;;;20889175;28;20031;-72
2021/08/15 03:44:14;;;;;;;22.58;13.43;;;18.90;99.90;;;;;;20896370;28;20644;-72
2021/08/15 03:54:19;;;;;;;24.85;12.55;;;18.60;99.90;;;;;;20896209;28;20653;-72
2021/08/15 04:04:20;;;;;;;17.50;10.23;;;18.80;99.90;;;;;;20915637;28;20033;-72
2021/08/15 04:14:22;;;;;;;20.77;11.03;;;19.20;99.90;;;;;;20947275;28;20098;-72
2021/08/15 04:24:23;;;;;;;26.85;12.20;;;19.20;99.90;;;;;;21003485;28;20037;-73
2021/08/15 04:34:24;;;;;;;18.00;10.93;;;19.40;99.90;;;;;;20915422;28;20036;-72
2021/08/15 04:44:24;;;;;;;21.53;11.97;;;19.40;99.90;;;;;;20913119;28;20100;-72
2021/08/15 04:54:28;;;;;;;21.40;12.40;;;19.40;99.90;;;;;;20912494;28;20021;-72
2021/08/15 05:04:30;;;;;;;23.88;12.27;;;19.30;99.90;;;;;;20911272;28;20028;-72
2021/08/15 05:14:30;;;;;;;19.88;11.77;;;19.30;99.90;;;;;;20910532;28;20124;-72
2021/08/15 05:24:31;;;;;;;23.23;11.70;;;19.50;99.90;;;;;;20910629;28;20514;-72
2021/08/15 05:34:32;;;;;;;25.13;13.40;;;19.60;99.90;;;;;;20908917;28;20041;-72
2021/08/15 05:44:33;;;;;;;28.90;13.87;;;20.00;99.90;;;;;;20908851;28;20464;-72
2021/08/15 05:54:34;;;;;;;21.90;12.80;;;20.50;99.90;;;;;;20908468;28;20029;-72
2021/08/15 06:04:35;;;;;;;21.80;11.03;;;20.90;99.90;;;;;;20921801;22;20392;-77
2021/08/15 06:14:35;;;;;;;21.90;11.20;;;21.20;99.90;;;;;;20810434;28;20026;-77
2021/08/15 06:24:37;;;;;;;20.47;11.87;;;21.30;99.90;;;;;;20766891;28;20060;-77
2021/08/15 06:34:38;;;;;;;19.73;10.93;;;21.80;99.90;;;;;;20769993;28;20030;-77
2021/08/15 06:44:39;;;;;;;23.53;11.00;;;22.40;99.90;;;;;;20767279;28;20058;-77
2021/08/15 06:54:40;;;;;;;14.50;10.10;;;22.90;99.90;;;;;;20764150;28;20497;-77
2021/08/15 07:04:41;;;;;;;20.83;9.90;;;23.60;99.90;;;;;;20760868;28;20030;-75
2021/08/15 07:14:42;;;;;;;20.30;10.10;;;23.90;99.90;;;;;;20761720;28;20073;-77
2021/08/15 07:24:43;;;;;;;28.13;10.00;;;24.30;99.90;;;;;;20750812;28;20054;-77
2021/08/15 07:34:44;;;;;;;;;;;24.70;99.90;;;;;;20744546;28;20445;-77
2021/08/15 07:44:44;;;;;;;14.83;8.97;;;25.60;99.90;;;;;;20765354;28;20535;-76
2021/08/15 07:54:45;;;;;;;19.33;9.88;;;25.80;99.90;;;;;;20759920;28;20068;-77
2021/08/15 08:04:48;;;;;;;13.98;10.07;;;25.10;99.90;;;;;;20758528;28;20034;-76
2021/08/15 08:14:49;;;;;;;15.48;9.27;;;24.90;99.90;;;;;;20770693;28;20040;-77
2021/08/15 08:24:50;;;;;;;14.70;9.75;;;24.70;99.90;;;;;;20746781;28;20033;-76
2021/08/15 08:34:51;;;;;;;;;;;24.70;99.90;;;;;;20736961;28;20448;-77
2021/08/15 08:44:54;;;;;;;16.37;8.30;;;24.80;99.90;;;;;;20740031;28;19910;-76
2021/08/15 08:54:58;;;;;;;15.05;9.73;;;24.90;99.90;;;;;;20751934;28;20372;-77
2021/08/15 09:04:59;;;;;;;15.13;9.50;;;25.60;99.90;;;;;;20745777;28;20041;-77
2021/08/15 09:15:11;;;;;;;15.75;10.30;;;26.30;99.90;;;;;;20756529;28;20041;-76
2021/08/15 09:25:19;;;;;;;18.45;8.93;;;25.70;99.90;;;;;;20736460;28;20033;-79
2021/08/15 09:35:27;;;;;;;18.60;9.20;;;26.20;99.90;;;;;;20727025;28;20702;-78
2021/08/15 09:45:44;;;;;;;16.98;9.95;;;26.40;99.90;;;;;;20727443;28;20042;-76
2021/08/15 09:55:45;;;;;;;19.98;9.75;;;25.50;99.90;;;;;;20728775;28;20042;-77
2021/08/15 10:05:46;;;;;;;20.02;9.07;;;25.70;99.90;;;;;;20723314;28;20037;-77
2021/08/15 10:15:58;;;;;;;15.43;9.65;;;26.60;99.90;;;;;;20722248;28;20041;-77
2021/08/15 10:25:59;;;;;;;16.33;10.38;;;26.50;99.90;;;;;;20721164;28;20036;-77
2021/08/15 10:36:21;;;;;;;18.45;9.82;;;25.80;99.90;;;;;;20732874;28;20025;-77
